sensor_id;sensor_type;location;lat;lon;timestamp;temperature;humidity
26623;DHT22;14254;50.968;5.366;2023-06-01T00:00:37;16.30;99.90
26623;DHT22;14254;50.968;5.366;2023-06-01T00:03:04;16.20;99.90
26623;DHT22;14254;50.968;5.366;2023-06-01T00:05:29;16.20;99.90
26623;DHT22;14254;50.968;5.366;2023-06-01T00:07:55;16.10;99.90
26623;DHT22;14254;50.968;5.366;2023-06-01T00:10:21;16.10;99.90
26623;DHT22;14254;50.968;5.366;2023-06-01T00:12:46;16.00;99.90
26623;DHT22;14254;50.968;5.366;2023-06-01T00:15:12;15.90;99.90
26623;DHT22;14254;50.968;5.366;2023-06-01T00:17:38;15.90;99.90
26623;DHT22;14254;50.968;5.366;2023-06-01T00:20:04;15.80;99.90
26623;DHT22;14254;50.968;5.366;2023-06-01T00:22:36;15.80;99.90
26623;DHT22;14254;50.968;5.366;2023-06-01T00:25:06;15.80;99.90
26623;DHT22;14254;50.968;5.366;2023-06-01T00:27:32;15.70;99.90
26623;DHT22;14254;50.968;5.366;2023-06-01T00:29:58;15.70;99.90
26623;DHT22;14254;50.968;5.366;2023-06-01T00:32:23;15.60;99.90
26623;DHT22;14254;50.968;5.366;2023-06-01T00:34:49;15.50;99.90
26623;DHT22;14254;50.968;5.366;2023-06-01T00:37:14;15.50;99.90
26623;DHT22;14254;50.968;5.366;2023-06-01T00:39:40;15.40;99.90
26623;DHT22;14254;50.968;5.366;2023-06-01T00:42:06;15.40;99.90
26623;DHT22;14254;50.968;5.366;2023-06-01T00:44:32;15.30;99.90
26623;DHT22;14254;50.968;5.366;2023-06-01T00:46:57;15.20;99.90
26623;DHT22;14254;50.968;5.366;2023-06-01T00:49:25;15.10;99.90
26623;DHT22;14254;50.968;5.366;2023-06-01T00:51:51;15.10;99.90
26623;DHT22;14254;50.968;5.366;2023-06-01T00:54:17;15.00;99.90
26623;DHT22;14254;50.968;5.366;2023-06-01T00:56:43;15.00;99.90
26623;DHT22;14254;50.968;5.366;2023-06-01T00:59:09;15.00;99.90
26623;DHT22;14254;50.968;5.366;2023-06-01T01:01:35;15.00;99.90
26623;DHT22;14254;50.968;5.366;2023-06-01T01:04:02;14.90;99.90
26623;DHT22;14254;50.968;5.366;2023-06-01T01:12:13;14.70;99.90
26623;DHT22;14254;50.968;5.366;2023-06-01T01:14:50;14.60;99.90
26623;DHT22;14254;50.968;5.366;2023-06-01T01:17:34;14.60;99.90
26623;DHT22;14254;50.968;5.366;2023-06-01T01:20:10;14.50;99.90
26623;DHT22;14254;50.968;5.366;2023-06-01T01:26:36;14.30;99.90
26623;DHT22;14254;50.968;5.366;2023-06-01T01:29:09;14.20;99.90
26623;DHT22;14254;50.968;5.366;2023-06-01T01:31:34;14.20;99.90
26623;DHT22;14254;50.968;5.366;2023-06-01T01:34:02;14.10;99.90
26623;DHT22;14254;50.968;5.366;2023-06-01T01:36:28;14.10;99.90
26623;DHT22;14254;50.968;5.366;2023-06-01T01:38:55;14.10;99.90
26623;DHT22;14254;50.968;5.366;2023-06-01T01:41:21;14.10;99.90
26623;DHT22;14254;50.968;5.366;2023-06-01T01:43:51;14.00;99.90
26623;DHT22;14254;50.968;5.366;2023-06-01T01:46:26;14.00;99.90
26623;DHT22;14254;50.968;5.366;2023-06-01T01:48:54;13.90;99.90
26623;DHT22;14254;50.968;5.366;2023-06-01T01:51:34;13.80;99.90
26623;DHT22;14254;50.968;5.366;2023-06-01T01:54:04;13.70;99.90
26623;DHT22;14254;50.968;5.366;2023-06-01T01:56:31;13.60;99.90
26623;DHT22;14254;50.968;5.366;2023-06-01T01:58:57;13.60;99.90
26623;DHT22;14254;50.968;5.366;2023-06-01T02:01:24;13.60;99.90
26623;DHT22;14254;50.968;5.366;2023-06-01T02:04:03;13.50;99.90
26623;DHT22;14254;50.968;5.366;2023-06-01T02:06:29;13.50;99.90
26623;DHT22;14254;50.968;5.366;2023-06-01T02:08:56;13.50;99.90
26623;DHT22;14254;50.968;5.366;2023-06-01T02:11:22;13.50;99.90
26623;DHT22;14254;50.968;5.366;2023-06-01T02:13:48;13.40;99.90
26623;DHT22;14254;50.968;5.366;2023-06-01T02:16:13;13.40;99.90
26623;DHT22;14254;50.968;5.366;2023-06-01T02:18:44;13.30;99.90
26623;DHT22;14254;50.968;5.366;2023-06-01T02:21:12;13.30;99.90
26623;DHT22;14254;50.968;5.366;2023-06-01T02:23:38;13.20;99.90
26623;DHT22;14254;50.968;5.366;2023-06-01T02:26:06;13.20;99.90
26623;DHT22;14254;50.968;5.366;2023-06-01T02:28:31;13.20;99.90
26623;DHT22;14254;50.968;5.366;2023-06-01T02:30:57;13.20;99.90
26623;DHT22;14254;50.968;5.366;2023-06-01T02:33:23;13.20;99.90
26623;DHT22;14254;50.968;5.366;2023-06-01T02:35:50;13.10;99.90
26623;DHT22;14254;50.968;5.366;2023-06-01T02:38:16;12.90;99.90
26623;DHT22;14254;50.968;5.366;2023-06-01T02:40:42;12.90;99.90
26623;DHT22;14254;50.968;5.366;2023-06-01T02:43:08;12.80;99.90
26623;DHT22;14254;50.968;5.366;2023-06-01T02:45:33;12.80;99.90
26623;DHT22;14254;50.968;5.366;2023-06-01T02:47:59;12.80;99.90
26623;DHT22;14254;50.968;5.366;2023-06-01T02:50:25;12.70;99.90
26623;DHT22;14254;50.968;5.366;2023-06-01T02:52:51;12.60;99.90
26623;DHT22;14254;50.968;5.366;2023-06-01T02:55:17;12.60;99.90
26623;DHT22;14254;50.968;5.366;2023-06-01T02:57:43;12.60;99.90
26623;DHT22;14254;50.968;5.366;2023-06-01T03:00:09;12.60;99.90
26623;DHT22;14254;50.968;5.366;2023-06-01T03:02:47;12.60;99.90
26623;DHT22;14254;50.968;5.366;2023-06-01T03:05:13;12.60;99.90
26623;DHT22;14254;50.968;5.366;2023-06-01T03:07:40;12.50;99.90
26623;DHT22;14254;50.968;5.366;2023-06-01T03:10:07;12.50;99.90
26623;DHT22;14254;50.968;5.366;2023-06-01T03:12:33;12.40;99.90
26623;DHT22;14254;50.968;5.366;2023-06-01T03:14:59;12.40;99.90
26623;DHT22;14254;50.968;5.366;2023-06-01T03:17:25;12.30;99.90
26623;DHT22;14254;50.968;5.366;2023-06-01T03:19:51;12.20;99.90
26623;DHT22;14254;50.968;5.366;2023-06-01T03:22:17;12.20;99.90
26623;DHT22;14254;50.968;5.366;2023-06-01T03:24:42;12.10;99.90
26623;DHT22;14254;50.968;5.366;2023-06-01T03:27:09;12.10;99.90
26623;DHT22;14254;50.968;5.366;2023-06-01T03:29:36;12.10;99.90
26623;DHT22;14254;50.968;5.366;2023-06-01T03:32:02;12.00;99.90
26623;DHT22;14254;50.968;5.366;2023-06-01T03:34:28;12.00;99.90
26623;DHT22;14254;50.968;5.366;2023-06-01T03:36:55;12.10;99.90
26623;DHT22;14254;50.968;5.366;2023-06-01T03:39:21;12.00;99.90
26623;DHT22;14254;50.968;5.366;2023-06-01T03:41:47;12.00;99.90
26623;DHT22;14254;50.968;5.366;2023-06-01T03:44:13;11.90;99.90
26623;DHT22;14254;50.968;5.366;2023-06-01T03:46:39;11.90;99.90
26623;DHT22;14254;50.968;5.366;2023-06-01T03:49:05;11.90;99.90
26623;DHT22;14254;50.968;5.366;2023-06-01T03:51:31;11.80;99.90
26623;DHT22;14254;50.968;5.366;2023-06-01T03:53:57;11.70;99.90
26623;DHT22;14254;50.968;5.366;2023-06-01T03:56:23;11.70;99.90
26623;DHT22;14254;50.968;5.366;2023-06-01T03:58:49;11.60;99.90
26623;DHT22;14254;50.968;5.366;2023-06-01T04:01:15;11.60;99.90
26623;DHT22;14254;50.968;5.366;2023-06-01T04:03:45;11.60;99.90
26623;DHT22;14254;50.968;5.366;2023-06-01T04:06:11;11.70;99.90
26623;DHT22;14254;50.968;5.366;2023-06-01T04:08:43;11.60;99.90
26623;DHT22;14254;50.968;5.366;2023-06-01T04:11:17;11.70;99.90
26623;DHT22;14254;50.968;5.366;2023-06-01T04:13:43;11.70;99.90
26623;DHT22;14254;50.968;5.366;2023-06-01T04:16:12;11.70;99.90
26623;DHT22;14254;50.968;5.366;2023-06-01T04:18:38;11.70;99.90
26623;DHT22;14254;50.968;5.366;2023-06-01T04:21:04;11.70;99.90
26623;DHT22;14254;50.968;5.366;2023-06-01T04:23:31;11.80;99.90
26623;DHT22;14254;50.968;5.366;2023-06-01T04:25:56;11.70;99.90
26623;DHT22;14254;50.968;5.366;2023-06-01T04:28:28;11.80;99.90
26623;DHT22;14254;50.968;5.366;2023-06-01T04:30:53;11.90;99.90
26623;DHT22;14254;50.968;5.366;2023-06-01T04:33:20;11.90;99.90
26623;DHT22;14254;50.968;5.366;2023-06-01T04:35:48;11.90;99.90
26623;DHT22;14254;50.968;5.366;2023-06-01T04:38:13;12.00;99.90
26623;DHT22;14254;50.968;5.366;2023-06-01T04:40:42;11.80;99.90
26623;DHT22;14254;50.968;5.366;2023-06-01T04:43:10;11.80;99.90
26623;DHT22;14254;50.968;5.366;2023-06-01T04:45:37;11.70;99.90
26623;DHT22;14254;50.968;5.366;2023-06-01T04:48:07;11.80;99.90
26623;DHT22;14254;50.968;5.366;2023-06-01T04:50:37;11.70;99.90
26623;DHT22;14254;50.968;5.366;2023-06-01T04:53:02;11.70;99.90
26623;DHT22;14254;50.968;5.366;2023-06-01T04:55:29;11.70;99.90
26623;DHT22;14254;50.968;5.366;2023-06-01T04:57:55;11.70;99.90
26623;DHT22;14254;50.968;5.366;2023-06-01T05:00:21;11.60;99.90
26623;DHT22;14254;50.968;5.366;2023-06-01T05:02:47;11.60;99.90
26623;DHT22;14254;50.968;5.366;2023-06-01T05:05:15;11.70;99.90
26623;DHT22;14254;50.968;5.366;2023-06-01T05:07:41;11.60;99.90
26623;DHT22;14254;50.968;5.366;2023-06-01T05:10:09;11.50;99.90
26623;DHT22;14254;50.968;5.366;2023-06-01T05:12:36;11.50;99.90
26623;DHT22;14254;50.968;5.366;2023-06-01T05:15:07;11.50;99.90
26623;DHT22;14254;50.968;5.366;2023-06-01T05:17:33;11.60;99.90
26623;DHT22;14254;50.968;5.366;2023-06-01T05:19:59;11.70;99.90
26623;DHT22;14254;50.968;5.366;2023-06-01T05:22:26;11.60;99.90
26623;DHT22;14254;50.968;5.366;2023-06-01T05:24:52;11.70;99.90
26623;DHT22;14254;50.968;5.366;2023-06-01T05:27:18;11.60;99.90
26623;DHT22;14254;50.968;5.366;2023-06-01T05:29:44;11.60;99.90
26623;DHT22;14254;50.968;5.366;2023-06-01T05:32:09;11.70;99.90
26623;DHT22;14254;50.968;5.366;2023-06-01T05:34:35;11.80;99.90
26623;DHT22;14254;50.968;5.366;2023-06-01T05:37:02;11.80;99.90
26623;DHT22;14254;50.968;5.366;2023-06-01T05:39:28;11.70;99.90
26623;DHT22;14254;50.968;5.366;2023-06-01T05:41:57;11.80;99.90
26623;DHT22;14254;50.968;5.366;2023-06-01T05:44:24;11.90;99.90
26623;DHT22;14254;50.968;5.366;2023-06-01T05:46:50;12.10;99.90
26623;DHT22;14254;50.968;5.366;2023-06-01T05:49:16;12.00;99.90
26623;DHT22;14254;50.968;5.366;2023-06-01T05:51:42;12.00;99.90
26623;DHT22;14254;50.968;5.366;2023-06-01T05:54:09;11.90;99.90
26623;DHT22;14254;50.968;5.366;2023-06-01T05:56:35;12.00;99.90
26623;DHT22;14254;50.968;5.366;2023-06-01T05:59:03;12.20;99.90
26623;DHT22;14254;50.968;5.366;2023-06-01T06:01:29;12.30;99.90
26623;DHT22;14254;50.968;5.366;2023-06-01T06:03:55;12.30;99.90
26623;DHT22;14254;50.968;5.366;2023-06-01T06:06:21;12.30;99.90
26623;DHT22;14254;50.968;5.366;2023-06-01T06:08:48;12.40;99.90
26623;DHT22;14254;50.968;5.366;2023-06-01T06:11:13;12.20;99.90
26623;DHT22;14254;50.968;5.366;2023-06-01T06:13:39;12.20;99.90
26623;DHT22;14254;50.968;5.366;2023-06-01T06:16:05;12.20;99.90
26623;DHT22;14254;50.968;5.366;2023-06-01T06:18:31;12.10;99.90
26623;DHT22;14254;50.968;5.366;2023-06-01T06:20:56;12.30;99.90
26623;DHT22;14254;50.968;5.366;2023-06-01T06:23:22;12.40;99.90
26623;DHT22;14254;50.968;5.366;2023-06-01T06:25:47;12.60;99.90
26623;DHT22;14254;50.968;5.366;2023-06-01T06:28:14;12.70;99.90
26623;DHT22;14254;50.968;5.366;2023-06-01T06:30:40;12.70;99.90
26623;DHT22;14254;50.968;5.366;2023-06-01T06:33:06;13.00;99.90
26623;DHT22;14254;50.968;5.366;2023-06-01T06:35:31;12.90;99.90
26623;DHT22;14254;50.968;5.366;2023-06-01T06:37:57;13.10;99.90
26623;DHT22;14254;50.968;5.366;2023-06-01T06:40:22;13.10;99.90
26623;DHT22;14254;50.968;5.366;2023-06-01T06:42:48;12.80;99.90
26623;DHT22;14254;50.968;5.366;2023-06-01T06:45:16;12.90;99.90
26623;DHT22;14254;50.968;5.366;2023-06-01T06:47:42;12.90;99.90
26623;DHT22;14254;50.968;5.366;2023-06-01T06:50:11;12.90;99.90
26623;DHT22;14254;50.968;5.366;2023-06-01T06:52:37;12.80;99.90
26623;DHT22;14254;50.968;5.366;2023-06-01T06:55:03;13.00;99.90
26623;DHT22;14254;50.968;5.366;2023-06-01T06:57:28;13.00;99.90
26623;DHT22;14254;50.968;5.366;2023-06-01T06:59:54;13.00;99.90
26623;DHT22;14254;50.968;5.366;2023-06-01T07:02:21;13.10;99.90
26623;DHT22;14254;50.968;5.366;2023-06-01T07:04:46;13.40;99.90
26623;DHT22;14254;50.968;5.366;2023-06-01T07:07:12;13.40;99.90
26623;DHT22;14254;50.968;5.366;2023-06-01T07:09:38;13.50;99.90
26623;DHT22;14254;50.968;5.366;2023-06-01T07:12:03;13.60;99.90
26623;DHT22;14254;50.968;5.366;2023-06-01T07:14:31;13.90;99.90
26623;DHT22;14254;50.968;5.366;2023-06-01T07:16:57;13.60;99.90
26623;DHT22;14254;50.968;5.366;2023-06-01T07:19:22;13.70;99.90
26623;DHT22;14254;50.968;5.366;2023-06-01T07:21:48;13.60;99.90
26623;DHT22;14254;50.968;5.366;2023-06-01T07:24:13;13.90;99.90
26623;DHT22;14254;50.968;5.366;2023-06-01T07:26:39;14.00;99.90
26623;DHT22;14254;50.968;5.366;2023-06-01T07:29:05;14.00;99.90
26623;DHT22;14254;50.968;5.366;2023-06-01T07:31:32;14.30;99.90
26623;DHT22;14254;50.968;5.366;2023-06-01T07:33:58;14.30;99.90
26623;DHT22;14254;50.968;5.366;2023-06-01T07:36:24;14.30;99.90
26623;DHT22;14254;50.968;5.366;2023-06-01T07:38:50;14.40;99.90
26623;DHT22;14254;50.968;5.366;2023-06-01T07:41:18;14.50;99.90
26623;DHT22;14254;50.968;5.366;2023-06-01T07:43:44;14.40;99.90
26623;DHT22;14254;50.968;5.366;2023-06-01T07:46:11;14.20;99.90
26623;DHT22;14254;50.968;5.366;2023-06-01T07:48:36;14.10;99.90
26623;DHT22;14254;50.968;5.366;2023-06-01T07:51:04;14.20;99.90
26623;DHT22;14254;50.968;5.366;2023-06-01T07:53:31;14.40;99.90
26623;DHT22;14254;50.968;5.366;2023-06-01T07:55:57;14.30;99.90
26623;DHT22;14254;50.968;5.366;2023-06-01T07:58:24;14.40;99.90
26623;DHT22;14254;50.968;5.366;2023-06-01T08:00:52;14.50;99.90
26623;DHT22;14254;50.968;5.366;2023-06-01T08:03:18;14.60;99.90
26623;DHT22;14254;50.968;5.366;2023-06-01T08:05:46;14.60;99.90
26623;DHT22;14254;50.968;5.366;2023-06-01T08:08:11;14.70;99.90
26623;DHT22;14254;50.968;5.366;2023-06-01T08:10:37;14.90;99.90
26623;DHT22;14254;50.968;5.366;2023-06-01T08:13:04;14.90;99.90
26623;DHT22;14254;50.968;5.366;2023-06-01T08:15:33;15.10;99.90
26623;DHT22;14254;50.968;5.366;2023-06-01T08:17:59;15.10;99.90
26623;DHT22;14254;50.968;5.366;2023-06-01T08:20:25;15.30;99.90
26623;DHT22;14254;50.968;5.366;2023-06-01T08:22:52;15.40;99.90
26623;DHT22;14254;50.968;5.366;2023-06-01T08:25:18;15.40;99.90
26623;DHT22;14254;50.968;5.366;2023-06-01T08:27:43;15.30;99.90
26623;DHT22;14254;50.968;5.366;2023-06-01T08:30:10;15.30;99.90
26623;DHT22;14254;50.968;5.366;2023-06-01T08:32:36;15.40;99.90
26623;DHT22;14254;50.968;5.366;2023-06-01T08:35:02;15.50;99.90
26623;DHT22;14254;50.968;5.366;2023-06-01T08:37:28;15.70;99.90
26623;DHT22;14254;50.968;5.366;2023-06-01T08:39:55;15.90;99.90
26623;DHT22;14254;50.968;5.366;2023-06-01T08:42:38;16.00;99.90
26623;DHT22;14254;50.968;5.366;2023-06-01T08:45:05;16.10;99.90
26623;DHT22;14254;50.968;5.366;2023-06-01T08:47:32;16.20;99.90
26623;DHT22;14254;50.968;5.366;2023-06-01T08:49:58;16.20;99.90
26623;DHT22;14254;50.968;5.366;2023-06-01T08:52:25;16.30;99.90
26623;DHT22;14254;50.968;5.366;2023-06-01T08:54:54;16.50;99.90
26623;DHT22;14254;50.968;5.366;2023-06-01T08:57:20;16.80;99.90
26623;DHT22;14254;50.968;5.366;2023-06-01T08:59:46;16.70;99.90
26623;DHT22;14254;50.968;5.366;2023-06-01T09:02:13;16.80;99.90
26623;DHT22;14254;50.968;5.366;2023-06-01T09:04:40;16.90;99.90
26623;DHT22;14254;50.968;5.366;2023-06-01T09:07:08;16.80;99.90
26623;DHT22;14254;50.968;5.366;2023-06-01T09:09:34;16.80;99.90
26623;DHT22;14254;50.968;5.366;2023-06-01T09:12:24;16.90;99.90
26623;DHT22;14254;50.968;5.366;2023-06-01T09:15:11;17.00;99.90
26623;DHT22;14254;50.968;5.366;2023-06-01T09:17:39;17.10;99.90
26623;DHT22;14254;50.968;5.366;2023-06-01T09:20:05;17.20;99.90
26623;DHT22;14254;50.968;5.366;2023-06-01T09:22:45;17.40;99.90
26623;DHT22;14254;50.968;5.366;2023-06-01T09:25:12;17.70;99.90
26623;DHT22;14254;50.968;5.366;2023-06-01T09:27:45;17.70;99.90
26623;DHT22;14254;50.968;5.366;2023-06-01T09:30:12;17.50;99.90
26623;DHT22;14254;50.968;5.366;2023-06-01T09:32:38;17.60;99.90
26623;DHT22;14254;50.968;5.366;2023-06-01T09:35:04;17.60;99.90
26623;DHT22;14254;50.968;5.366;2023-06-01T09:37:36;17.70;99.90
26623;DHT22;14254;50.968;5.366;2023-06-01T09:40:05;17.80;99.90
26623;DHT22;14254;50.968;5.366;2023-06-01T09:42:41;17.90;99.90
26623;DHT22;14254;50.968;5.366;2023-06-01T09:45:19;18.00;99.90
26623;DHT22;14254;50.968;5.366;2023-06-01T09:47:46;18.30;99.90
26623;DHT22;14254;50.968;5.366;2023-06-01T09:50:32;18.40;99.90
26623;DHT22;14254;50.968;5.366;2023-06-01T09:52:58;18.30;99.90
26623;DHT22;14254;50.968;5.366;2023-06-01T09:55:24;18.50;99.90
26623;DHT22;14254;50.968;5.366;2023-06-01T09:57:50;18.50;99.90
26623;DHT22;14254;50.968;5.366;2023-06-01T10:00:24;18.60;99.90
26623;DHT22;14254;50.968;5.366;2023-06-01T10:02:54;18.70;99.90
26623;DHT22;14254;50.968;5.366;2023-06-01T10:05:20;18.60;99.90
26623;DHT22;14254;50.968;5.366;2023-06-01T10:07:46;18.70;99.90
26623;DHT22;14254;50.968;5.366;2023-06-01T10:10:14;18.60;99.90
26623;DHT22;14254;50.968;5.366;2023-06-01T10:12:40;18.50;99.90
26623;DHT22;14254;50.968;5.366;2023-06-01T10:15:06;18.70;99.90
26623;DHT22;14254;50.968;5.366;2023-06-01T10:17:34;19.00;99.90
26623;DHT22;14254;50.968;5.366;2023-06-01T10:20:01;19.40;99.90
26623;DHT22;14254;50.968;5.366;2023-06-01T10:22:29;19.60;99.90
26623;DHT22;14254;50.968;5.366;2023-06-01T10:24:59;19.50;99.90
26623;DHT22;14254;50.968;5.366;2023-06-01T10:30:40;19.70;99.90
26623;DHT22;14254;50.968;5.366;2023-06-01T10:33:06;19.70;99.90
26623;DHT22;14254;50.968;5.366;2023-06-01T10:40:36;19.80;99.90
26623;DHT22;14254;50.968;5.366;2023-06-01T10:43:02;19.80;99.90
26623;DHT22;14254;50.968;5.366;2023-06-01T10:48:01;20.30;99.90
26623;DHT22;14254;50.968;5.366;2023-06-01T10:50:27;20.50;99.90
26623;DHT22;14254;50.968;5.366;2023-06-01T10:52:57;20.50;99.90
26623;DHT22;14254;50.968;5.366;2023-06-01T10:55:42;20.60;99.90
26623;DHT22;14254;50.968;5.366;2023-06-01T10:58:21;20.90;99.90
26623;DHT22;14254;50.968;5.366;2023-06-01T11:00:52;20.90;99.90
26623;DHT22;14254;50.968;5.366;2023-06-01T11:03:43;20.80;99.90
26623;DHT22;14254;50.968;5.366;2023-06-01T11:06:24;21.00;99.90
26623;DHT22;14254;50.968;5.366;2023-06-01T11:08:51;21.00;99.90
26623;DHT22;14254;50.968;5.366;2023-06-01T11:11:18;21.00;99.90
26623;DHT22;14254;50.968;5.366;2023-06-01T11:14:05;21.00;99.90
26623;DHT22;14254;50.968;5.366;2023-06-01T11:16:31;21.00;99.90
26623;DHT22;14254;50.968;5.366;2023-06-01T11:19:02;21.00;99.90
26623;DHT22;14254;50.968;5.366;2023-06-01T11:23:56;21.40;99.90
26623;DHT22;14254;50.968;5.366;2023-06-01T11:26:24;21.20;99.90
26623;DHT22;14254;50.968;5.366;2023-06-01T11:28:52;21.30;99.90
26623;DHT22;14254;50.968;5.366;2023-06-01T11:31:19;21.50;99.90
26623;DHT22;14254;50.968;5.366;2023-06-01T11:33:49;22.10;99.90
26623;DHT22;14254;50.968;5.366;2023-06-01T11:36:24;23.60;99.70
26623;DHT22;14254;50.968;5.366;2023-06-01T11:38:54;25.80;97.80
26623;DHT22;14254;50.968;5.366;2023-06-01T11:41:22;27.90;92.90
26623;DHT22;14254;50.968;5.366;2023-06-01T11:43:56;27.10;91.90
26623;DHT22;14254;50.968;5.366;2023-06-01T11:46:23;27.60;90.80
26623;DHT22;14254;50.968;5.366;2023-06-01T11:49:05;29.40;88.90
26623;DHT22;14254;50.968;5.366;2023-06-01T11:51:40;28.60;83.20
26623;DHT22;14254;50.968;5.366;2023-06-01T11:54:08;28.20;85.50
26623;DHT22;14254;50.968;5.366;2023-06-01T11:56:37;28.80;82.20
26623;DHT22;14254;50.968;5.366;2023-06-01T11:59:05;30.60;79.40
26623;DHT22;14254;50.968;5.366;2023-06-01T12:01:45;31.90;76.40
26623;DHT22;14254;50.968;5.366;2023-06-01T12:04:20;30.70;75.50
26623;DHT22;14254;50.968;5.366;2023-06-01T12:06:46;29.20;75.20
26623;DHT22;14254;50.968;5.366;2023-06-01T12:09:12;29.60;77.60
26623;DHT22;14254;50.968;5.366;2023-06-01T12:11:40;30.00;72.50
26623;DHT22;14254;50.968;5.366;2023-06-01T12:14:08;28.90;74.80
26623;DHT22;14254;50.968;5.366;2023-06-01T12:16:52;29.00;75.80
26623;DHT22;14254;50.968;5.366;2023-06-01T12:19:18;29.30;75.70
26623;DHT22;14254;50.968;5.366;2023-06-01T12:21:51;30.00;72.20
26623;DHT22;14254;50.968;5.366;2023-06-01T12:24:18;30.70;71.10
26623;DHT22;14254;50.968;5.366;2023-06-01T12:26:44;29.90;69.50
26623;DHT22;14254;50.968;5.366;2023-06-01T12:29:10;30.20;71.50
26623;DHT22;14254;50.968;5.366;2023-06-01T12:31:35;29.90;71.20
26623;DHT22;14254;50.968;5.366;2023-06-01T12:34:01;29.70;72.20
26623;DHT22;14254;50.968;5.366;2023-06-01T12:36:31;30.30;69.10
26623;DHT22;14254;50.968;5.366;2023-06-01T12:38:57;30.00;68.00
26623;DHT22;14254;50.968;5.366;2023-06-01T12:41:24;30.00;68.10
26623;DHT22;14254;50.968;5.366;2023-06-01T12:43:51;30.00;70.20
26623;DHT22;14254;50.968;5.366;2023-06-01T12:46:22;30.10;70.10
26623;DHT22;14254;50.968;5.366;2023-06-01T12:48:50;29.40;72.90
26623;DHT22;14254;50.968;5.366;2023-06-01T12:51:16;29.60;68.40
26623;DHT22;14254;50.968;5.366;2023-06-01T12:53:42;30.20;68.10
26623;DHT22;14254;50.968;5.366;2023-06-01T12:56:08;28.60;69.30
26623;DHT22;14254;50.968;5.366;2023-06-01T12:58:34;29.20;71.20
26623;DHT22;14254;50.968;5.366;2023-06-01T13:00:59;31.70;66.90
26623;DHT22;14254;50.968;5.366;2023-06-01T13:03:26;30.30;65.70
26623;DHT22;14254;50.968;5.366;2023-06-01T13:05:51;30.80;68.50
26623;DHT22;14254;50.968;5.366;2023-06-01T13:08:17;30.50;66.20
26623;DHT22;14254;50.968;5.366;2023-06-01T13:10:43;31.10;67.70
26623;DHT22;14254;50.968;5.366;2023-06-01T13:13:09;32.00;64.20
26623;DHT22;14254;50.968;5.366;2023-06-01T13:15:39;32.00;64.10
26623;DHT22;14254;50.968;5.366;2023-06-01T13:18:05;31.70;68.40
26623;DHT22;14254;50.968;5.366;2023-06-01T13:20:31;31.30;65.50
26623;DHT22;14254;50.968;5.366;2023-06-01T13:22:57;31.60;65.30
26623;DHT22;14254;50.968;5.366;2023-06-01T13:25:22;32.20;64.60
26623;DHT22;14254;50.968;5.366;2023-06-01T13:27:49;32.70;63.50
26623;DHT22;14254;50.968;5.366;2023-06-01T13:30:15;32.50;61.60
26623;DHT22;14254;50.968;5.366;2023-06-01T13:32:40;31.90;62.00
26623;DHT22;14254;50.968;5.366;2023-06-01T13:35:06;31.10;63.60
26623;DHT22;14254;50.968;5.366;2023-06-01T13:37:32;30.20;64.90
26623;DHT22;14254;50.968;5.366;2023-06-01T13:39:58;30.50;63.70
26623;DHT22;14254;50.968;5.366;2023-06-01T13:42:24;30.80;63.30
26623;DHT22;14254;50.968;5.366;2023-06-01T13:44:49;30.20;65.60
26623;DHT22;14254;50.968;5.366;2023-06-01T13:47:16;30.50;64.60
26623;DHT22;14254;50.968;5.366;2023-06-01T13:49:43;30.90;66.90
26623;DHT22;14254;50.968;5.366;2023-06-01T13:52:09;31.20;64.80
26623;DHT22;14254;50.968;5.366;2023-06-01T13:54:35;31.80;64.40
26623;DHT22;14254;50.968;5.366;2023-06-01T13:57:01;32.60;61.50
26623;DHT22;14254;50.968;5.366;2023-06-01T13:59:31;31.60;61.80
26623;DHT22;14254;50.968;5.366;2023-06-01T14:01:59;32.00;65.50
26623;DHT22;14254;50.968;5.366;2023-06-01T14:04:25;32.50;60.20
26623;DHT22;14254;50.968;5.366;2023-06-01T14:06:50;31.50;64.10
26623;DHT22;14254;50.968;5.366;2023-06-01T14:09:19;31.20;61.40
26623;DHT22;14254;50.968;5.366;2023-06-01T14:11:45;30.10;63.60
26623;DHT22;14254;50.968;5.366;2023-06-01T14:14:10;31.10;65.20
26623;DHT22;14254;50.968;5.366;2023-06-01T14:16:36;32.10;63.10
26623;DHT22;14254;50.968;5.366;2023-06-01T14:19:02;31.20;63.40
26623;DHT22;14254;50.968;5.366;2023-06-01T14:21:28;31.50;62.70
26623;DHT22;14254;50.968;5.366;2023-06-01T14:23:56;30.20;62.80
26623;DHT22;14254;50.968;5.366;2023-06-01T14:26:22;29.80;64.10
26623;DHT22;14254;50.968;5.366;2023-06-01T14:28:47;29.60;66.20
26623;DHT22;14254;50.968;5.366;2023-06-01T14:31:13;29.50;64.60
26623;DHT22;14254;50.968;5.366;2023-06-01T14:33:39;30.00;63.90
26623;DHT22;14254;50.968;5.366;2023-06-01T14:36:05;30.40;62.40
26623;DHT22;14254;50.968;5.366;2023-06-01T14:38:31;29.40;64.30
26623;DHT22;14254;50.968;5.366;2023-06-01T14:40:56;30.40;62.60
26623;DHT22;14254;50.968;5.366;2023-06-01T14:43:22;30.70;60.50
26623;DHT22;14254;50.968;5.366;2023-06-01T14:45:48;31.60;61.10
26623;DHT22;14254;50.968;5.366;2023-06-01T14:48:14;31.10;62.80
26623;DHT22;14254;50.968;5.366;2023-06-01T14:50:39;32.20;62.40
26623;DHT22;14254;50.968;5.366;2023-06-01T14:53:05;33.30;62.50
26623;DHT22;14254;50.968;5.366;2023-06-01T14:55:32;33.80;59.60
26623;DHT22;14254;50.968;5.366;2023-06-01T14:57:57;33.50;60.60
26623;DHT22;14254;50.968;5.366;2023-06-01T15:00:23;34.00;57.40
26623;DHT22;14254;50.968;5.366;2023-06-01T15:02:49;32.70;58.20
26623;DHT22;14254;50.968;5.366;2023-06-01T15:05:15;31.00;60.60
26623;DHT22;14254;50.968;5.366;2023-06-01T15:07:41;30.60;62.80
26623;DHT22;14254;50.968;5.366;2023-06-01T15:10:07;30.80;62.70
26623;DHT22;14254;50.968;5.366;2023-06-01T15:12:33;31.50;62.30
26623;DHT22;14254;50.968;5.366;2023-06-01T15:14:58;33.00;59.30
26623;DHT22;14254;50.968;5.366;2023-06-01T15:17:24;33.50;59.10
26623;DHT22;14254;50.968;5.366;2023-06-01T15:19:50;33.60;58.40
26623;DHT22;14254;50.968;5.366;2023-06-01T15:22:16;31.80;59.40
26623;DHT22;14254;50.968;5.366;2023-06-01T15:24:42;31.50;60.10
26623;DHT22;14254;50.968;5.366;2023-06-01T15:27:08;31.30;60.70
26623;DHT22;14254;50.968;5.366;2023-06-01T15:29:34;30.90;60.40
26623;DHT22;14254;50.968;5.366;2023-06-01T15:32:01;31.20;60.40
26623;DHT22;14254;50.968;5.366;2023-06-01T15:34:27;31.70;61.00
26623;DHT22;14254;50.968;5.366;2023-06-01T15:36:52;31.40;60.00
26623;DHT22;14254;50.968;5.366;2023-06-01T15:39:18;32.80;60.60
26623;DHT22;14254;50.968;5.366;2023-06-01T15:41:44;33.70;59.50
26623;DHT22;14254;50.968;5.366;2023-06-01T15:44:10;33.00;58.90
26623;DHT22;14254;50.968;5.366;2023-06-01T15:46:35;32.00;59.80
26623;DHT22;14254;50.968;5.366;2023-06-01T15:49:01;30.70;61.30
26623;DHT22;14254;50.968;5.366;2023-06-01T15:51:26;30.50;60.60
26623;DHT22;14254;50.968;5.366;2023-06-01T15:53:53;31.00;61.80